Time;durP1;ratioP1;P1;durP2;ratioP2;P2;SDS_P1;SDS_P2;PMS_P1;PMS_P2;Temp;Humidity;BMP_temperature;BMP_pressure;BME280_temperature;BME280_humidity;BME280_pressure;Samples;Min_cycle;Max_cycle;Signal;HPM_P1;HPM_P2
2021/01/31 00:00:34;;;;;;;15.95;13.13;;;;;;;6.08;100.00;100304.16;5052042;28;20498;-65
2021/01/31 00:03:01;;;;;;;17.88;13.23;;;;;;;6.06;100.00;100304.38;5051974;28;20025;-64
2021/01/31 00:05:27;;;;;;;14.95;12.35;;;;;;;6.04;100.00;100301.88;5051733;28;20115;-65
2021/01/31 00:07:53;;;;;;;15.65;12.55;;;;;;;6.03;100.00;100307.53;5051638;28;20493;-64
2021/01/31 00:10:25;;;;;;;16.83;13.93;;;;;;;6.05;100.00;100297.28;5051780;28;20036;-64
2021/01/31 00:12:51;;;;;;;15.82;13.15;;;;;;;6.05;100.00;100302.72;5051682;28;20111;-65
2021/01/31 00:15:19;;;;;;;15.95;12.38;;;;;;;6.05;100.00;100302.72;5051661;28;20491;-65
2021/01/31 00:17:45;;;;;;;16.15;12.70;;;;;;;6.05;100.00;100291.88;5050406;28;20040;-65
2021/01/31 00:20:12;;;;;;;16.10;12.57;;;;;;;6.05;100.00;100286.44;5051425;28;20041;-63
2021/01/31 00:22:38;;;;;;;16.23;12.38;;;;;;;6.03;100.00;100283.13;5051466;28;20037;-66
2021/01/31 00:25:05;;;;;;;20.52;12.48;;;;;;;6.01;100.00;100274.41;5050048;28;20040;-63
2021/01/31 00:27:31;;;;;;;14.65;12.40;;;;;;;6.00;100.00;100275.47;5051609;28;20036;-65
2021/01/31 00:29:57;;;;;;;19.33;12.88;;;;;;;5.98;100.00;100274.88;5051091;28;20075;-65
2021/01/31 00:32:28;;;;;;;18.20;13.02;;;;;;;5.98;100.00;100255.88;5051318;28;20429;-65
2021/01/31 00:34:56;;;;;;;14.43;12.13;;;;;;;5.96;100.00;100255.28;5050186;28;20041;-66
2021/01/31 00:37:22;;;;;;;18.63;13.15;;;;;;;5.96;100.00;100255.28;5051273;28;20040;-64
2021/01/31 00:39:50;;;;;;;17.70;12.50;;;;;;;5.94;100.00;100268.25;5051341;28;20091;-65
2021/01/31 00:42:18;;;;;;;17.40;12.23;;;;;;;5.94;100.00;100268.25;5051206;28;20182;-64
2021/01/31 00:44:46;;;;;;;17.60;12.80;;;;;;;5.89;100.00;100273.47;5051092;28;20533;-65
2021/01/31 00:47:12;;;;;;;17.05;11.93;;;;;;;5.92;100.00;100281.19;5050650;28;20044;-65
2021/01/31 00:49:38;;;;;;;18.50;11.98;;;;;;;5.87;100.00;100281.00;5051114;28;20033;-63
2021/01/31 00:52:04;;;;;;;17.52;12.57;;;;;;;5.87;100.00;100294.53;5051027;28;20087;-64
2021/01/31 00:54:30;;;;;;;16.90;12.15;;;;;;;5.88;100.00;100307.03;5051134;28;20033;-63
2021/01/31 00:56:56;;;;;;;15.88;12.25;;;;;;;5.88;100.00;100318.69;5050991;28;20528;-66
2021/01/31 00:59:21;;;;;;;14.05;10.95;;;;;;;5.87;100.00;100327.06;5050986;28;20033;-64
2021/01/31 01:01:47;;;;;;;21.45;12.23;;;;;;;5.88;100.00;100329.53;5050851;28;20071;-64
2021/01/31 01:04:13;;;;;;;16.45;11.23;;;;;;;5.90;100.00;100342.91;5050846;28;20044;-64
2021/01/31 01:06:39;;;;;;;17.23;11.90;;;;;;;5.93;100.00;100358.75;5050831;28;20061;-65
2021/01/31 01:09:05;;;;;;;19.27;11.55;;;;;;;5.92;100.00;100346.25;5050913;28;20044;-65
2021/01/31 01:11:30;;;;;;;13.93;11.20;;;;;;;5.94;100.00;100338.72;5050729;28;20041;-64
2021/01/31 01:13:56;;;;;;;16.73;10.90;;;;;;;5.94;100.00;100357.69;5050686;28;20033;-64
2021/01/31 01:16:22;;;;;;;16.45;10.48;;;;;;;5.93;100.00;100347.91;5049429;28;20044;-64
2021/01/31 01:18:48;;;;;;;20.92;11.27;;;;;;;5.96;100.00;100355.56;5050636;28;20041;-65
2021/01/31 01:21:15;;;;;;;16.83;10.88;;;;;;;5.97;100.00;100359.94;5049350;28;20479;-65
2021/01/31 01:23:41;;;;;;;16.00;11.10;;;;;;;5.98;100.00;100375.97;5049504;28;20055;-65
2021/01/31 01:26:07;;;;;;;15.63;10.15;;;;;;;5.99;100.00;100390.38;5050569;28;20029;-63
2021/01/31 01:28:33;;;;;;;13.40;10.27;;;;;;;5.97;100.00;100397.91;5050368;28;20044;-64
2021/01/31 01:30:58;;;;;;;17.80;11.13;;;;;;;5.98;100.00;100396.84;5051028;28;20549;-65
2021/01/31 01:33:24;;;;;;;14.70;9.68;;;;;;;5.99;100.00;100412.03;5050448;28;20560;-65
2021/01/31 01:35:49;;;;;;;18.35;10.43;;;;;;;6.00;100.00;100413.69;5050780;28;20043;-66
2021/01/31 01:38:15;;;;;;;18.60;11.30;;;;;;;6.02;100.00;100417.84;5050643;28;20048;-64
2021/01/31 01:40:41;;;;;;;19.70;10.57;;;;;;;6.05;100.00;100411.16;5050577;28;20035;-64
2021/01/31 01:43:13;;;;;;;16.45;9.95;;;;;;;6.07;100.00;100409.03;5050583;28;20040;-63
2021/01/31 01:45:39;;;;;;;13.95;9.93;;;;;;;6.08;100.00;100415.31;5050392;28;20087;-64
2021/01/31 01:48:12;;;;;;;17.10;9.45;;;;;;;6.07;100.00;100408.22;5050412;28;20036;-65
2021/01/31 01:50:49;;;;;;;18.85;10.05;;;;;;;6.06;100.00;100407.38;5050331;28;20033;-65
2021/01/31 01:53:17;;;;;;;16.27;10.43;;;;;;;6.04;100.00;100404.06;5050360;28;20124;-65
2021/01/31 01:55:53;;;;;;;17.98;10.50;;;;;;;6.05;100.00;100394.88;5050455;28;20060;-64
2021/01/31 01:58:20;;;;;;;17.73;9.60;;;;;;;6.03;100.00;100381.56;5051653;28;20033;-65
2021/01/31 02:00:48;;;;;;;17.27;10.25;;;;;;;6.04;100.00;100387.81;5054097;28;20131;-65
2021/01/31 02:03:19;;;;;;;18.88;10.15;;;;;;;6.02;100.00;100371.75;5054092;28;20040;-65
2021/01/31 02:05:57;;;;;;;18.92;10.27;;;;;;;6.02;100.00;100373.66;5054105;28;20037;-65
2021/01/31 02:08:23;;;;;;;16.67;10.60;;;;;;;6.01;100.00;100377.41;5054117;28;20060;-64
2021/01/31 02:10:49;;;;;;;25.13;10.95;;;;;;;5.96;100.00;100382.69;5054102;28;20758;-66
2021/01/31 02:13:14;;;;;;;19.75;11.35;;;;;;;5.95;100.00;100392.69;5052883;28;20563;-65
2021/01/31 02:15:40;;;;;;;19.27;10.23;;;;;;;5.95;100.00;100394.56;5053968;28;20029;-65
2021/01/31 02:18:27;;;;;;;22.02;10.68;;;;;;;5.96;100.00;100407.06;5052460;28;20513;-66
2021/01/31 02:21:37;;;;;;;19.70;10.30;;;;;;;5.97;100.00;100400.59;5052472;28;20029;-65
2021/01/31 02:24:25;;;;;;;29.92;10.50;;;;;;;5.92;100.00;100401.28;5051121;28;20072;-64
2021/01/31 02:27:10;;;;;;;23.10;10.73;;;;;;;5.91;100.00;100393.38;5051711;28;20065;-63
2021/01/31 02:30:13;;;;;;;18.40;10.85;;;;;;;5.88;100.00;100393.75;5053515;28;20041;-63
2021/01/31 02:33:03;;;;;;;19.10;10.35;;;;;;;5.86;100.00;100374.19;5053577;28;20036;-64
2021/01/31 02:35:30;;;;;;;20.13;10.45;;;;;;;5.84;100.00;100376.28;5053563;28;20021;-65
2021/01/31 02:38:16;;;;;;;18.95;10.70;;;;;;;5.84;100.00;100387.13;5052183;28;20037;-63
2021/01/31 02:40:55;;;;;;;24.17;10.10;;;;;;;5.82;100.00;100394.66;5053395;28;20036;-66
2021/01/31 02:43:41;;;;;;;22.30;11.45;;;;;;;5.81;100.00;100403.84;5053534;28;20033;-65
2021/01/31 02:46:39;;;;;;;19.45;10.82;;;;;;;5.81;100.00;100414.69;5053495;28;20532;-65
2021/01/31 02:49:15;;;;;;;30.80;11.32;;;;;;;5.82;100.00;100416.34;5053540;28;20094;-64
2021/01/31 02:52:15;;;;;;;20.70;10.98;;;;;;;5.84;100.00;100409.63;5053213;28;20044;-65
2021/01/31 02:55:24;;;;;;;18.85;10.95;;;;;;;5.86;100.00;100412.13;5053093;28;20487;-64
2021/01/31 02:58:00;;;;;;;23.15;10.27;;;;;;;5.88;100.00;100410.03;5053203;28;20054;-65
2021/01/31 03:00:31;;;;;;;22.20;10.50;;;;;;;5.89;100.00;100411.69;5053202;28;20044;-64
2021/01/31 03:03:13;;;;;;;17.08;10.10;;;;;;;5.91;100.00;100412.34;5053080;28;20041;-63
2021/01/31 03:05:43;;;;;;;19.65;10.48;;;;;;;5.92;100.00;100414.00;5052983;28;20056;-64
2021/01/31 03:08:08;;;;;;;19.10;10.48;;;;;;;5.93;100.00;100408.34;5052889;28;20044;-64
2021/01/31 03:10:54;;;;;;;24.33;10.45;;;;;;;5.95;100.00;100410.84;5052612;28;20037;-64
2021/01/31 03:13:30;;;;;;;17.90;9.68;;;;;;;5.95;100.00;100410.84;5052751;28;20041;-65
2021/01/31 03:16:06;;;;;;;20.65;10.88;;;;;;;5.95;100.00;100411.66;5052950;28;20037;-65
2021/01/31 03:18:51;;;;;;;16.75;9.95;;;;;;;5.95;100.00;100416.25;5052770;28;20033;-63
2021/01/31 03:21:22;;;;;;;22.75;9.88;;;;;;;5.98;100.00;100423.94;5052758;28;20086;-65
2021/01/31 03:23:59;;;;;;;18.83;10.63;;;;;;;5.97;100.00;100414.16;5053049;28;20041;-65
2021/01/31 03:26:38;;;;;;;19.08;9.70;;;;;;;6.00;100.00;100397.44;5052467;28;20040;-65
2021/01/31 03:29:04;;;;;;;18.15;10.10;;;;;;;6.02;100.00;100406.19;5052329;28;20136;-65
2021/01/31 03:31:33;;;;;;;21.30;11.20;;;;;;;6.01;100.00;100407.22;5052458;28;20115;-63
2021/01/31 03:34:07;;;;;;;15.50;10.20;;;;;;;6.01;100.00;100407.22;5052617;28;20116;-64
2021/01/31 03:36:34;;;;;;;18.95;10.63;;;;;;;6.01;100.00;100416.19;5052568;28;20053;-63
2021/01/31 03:39:01;;;;;;;19.42;10.48;;;;;;;6.00;100.00;100419.13;5052570;28;20037;-64
2021/01/31 03:41:28;;;;;;;24.10;10.93;;;;;;;6.05;100.00;100413.84;5052225;28;20052;-65
2021/01/31 03:43:55;;;;;;;18.30;9.15;;;;;;;6.07;100.00;100409.03;5052326;28;20037;-66
2021/01/31 03:46:37;;;;;;;19.92;10.55;;;;;;;6.07;100.00;100411.75;5052146;28;20041;-66
2021/01/31 03:49:25;;;;;;;17.88;11.13;;;;;;;6.08;100.00;100410.72;5052265;28;20449;-64
2021/01/31 03:51:50;;;;;;;19.45;10.80;;;;;;;6.11;100.00;100412.97;5052133;28;20108;-64
2021/01/31 03:54:16;;;;;;;19.83;10.98;;;;;;;6.11;100.00;100414.88;5052096;28;20187;-65
2021/01/31 03:57:08;;;;;;;24.25;10.38;;;;;;;6.11;100.00;100414.88;5051989;28;20044;-65
2021/01/31 03:59:41;;;;;;;17.17;10.43;;;;;;;6.12;100.00;100414.63;5051295;28;20084;-64
2021/01/31 04:02:09;;;;;;;25.05;10.75;;;;;;;6.13;100.00;100410.88;5051877;28;20032;-65
2021/01/31 04:04:46;;;;;;;17.15;10.95;;;;;;;6.15;100.00;100408.75;5051968;28;20491;-65
2021/01/31 04:07:18;;;;;;;21.27;10.50;;;;;;;6.12;100.00;100411.94;5051829;28;20518;-66
2021/01/31 04:09:45;;;;;;;23.95;11.35;;;;;;;6.11;100.00;100404.84;5050398;28;20042;-64
2021/01/31 04:12:15;;;;;;;18.45;10.07;;;;;;;6.10;100.00;100395.06;5051644;28;20514;-63
2021/01/31 04:15:16;;;;;;;22.98;10.35;;;;;;;6.08;100.00;100394.47;5051626;28;20111;-65
2021/01/31 04:17:48;;;;;;;23.27;10.25;;;;;;;6.08;100.00;100383.63;5049096;28;20056;-66
2021/01/31 04:20:14;;;;;;;20.92;10.63;;;;;;;6.07;100.00;100381.94;5051047;28;20055;-64
2021/01/31 04:22:40;;;;;;;20.58;10.48;;;;;;;6.05;100.00;100376.72;5051272;28;20045;-64
2021/01/31 04:25:07;;;;;;;22.92;11.30;;;;;;;6.04;100.00;100371.53;5050381;28;20051;-64
2021/01/31 04:27:32;;;;;;;18.98;11.05;;;;;;;5.97;100.00;100376.22;5051437;28;20114;-65
2021/01/31 04:29:58;;;;;;;20.65;10.85;;;;;;;6.00;100.00;100364.91;5049884;28;20432;-64
2021/01/31 04:32:23;;;;;;;21.58;11.27;;;;;;;5.98;100.00;100357.00;5051278;28;20044;-66
2021/01/31 04:34:49;;;;;;;22.95;10.57;;;;;;;5.99;100.00;100364.09;5051212;28;20052;-64
2021/01/31 04:37:15;;;;;;;19.27;10.35;;;;;;;5.99;100.00;100369.50;5051338;28;20072;-64
2021/01/31 04:39:41;;;;;;;24.48;11.23;;;;;;;5.99;100.00;100379.53;5051179;28;20511;-65
2021/01/31 04:42:08;;;;;;;25.13;11.60;;;;;;;5.97;100.00;100365.38;5051296;28;20036;-64
2021/01/31 04:44:34;;;;;;;24.40;10.95;;;;;;;5.96;100.00;100361.00;5051116;28;20407;-65
2021/01/31 04:47:18;;;;;;;26.08;10.82;;;;;;;5.94;100.00;100358.50;5051047;28;20033;-65
2021/01/31 04:50:12;;;;;;;23.63;12.00;;;;;;;5.93;100.00;100353.31;5051126;28;20482;-64
2021/01/31 04:52:47;;;;;;;18.35;11.20;;;;;;;5.93;100.00;100339.78;5051094;28;20455;-66
2021/01/31 04:55:41;;;;;;;28.63;11.43;;;;;;;5.91;100.00;100344.59;5051182;28;20039;-64
2021/01/31 04:58:15;;;;;;;29.25;12.27;;;;;;;5.89;100.00;100346.63;5050993;28;20036;-65
2021/01/31 05:00:54;;;;;;;26.87;11.37;;;;;;;5.88;100.00;100353.09;5050900;28;20147;-64
2021/01/31 05:03:22;;;;;;;27.20;11.95;;;;;;;5.82;100.00;100362.13;5050835;28;20490;-64
2021/01/31 05:06:01;;;;;;;24.80;11.45;;;;;;;5.83;100.00;100358.38;5050739;28;20127;-64
2021/01/31 05:08:29;;;;;;;21.27;10.52;;;;;;;5.82;100.00;100351.31;5050893;28;20064;-65
2021/01/31 05:10:58;;;;;;;23.08;10.50;;;;;;;5.83;100.00;100347.53;5050847;28;20029;-64
2021/01/31 05:13:47;;;;;;;25.05;10.30;;;;;;;5.83;100.00;100355.66;5050730;28;20658;-64
2021/01/31 05:16:14;;;;;;;22.38;10.63;;;;;;;5.82;100.00;100354.00;5050856;28;20032;-65
2021/01/31 05:18:45;;;;;;;28.98;10.85;;;;;;;5.82;100.00;100346.72;5050667;28;20487;-64
2021/01/31 05:21:13;;;;;;;23.75;10.77;;;;;;;5.83;100.00;100347.53;5050589;28;20036;-64
2021/01/31 05:23:42;;;;;;;23.42;11.45;;;;;;;5.83;100.00;100336.69;5049310;28;20048;-64
2021/01/31 05:26:11;;;;;;;24.80;10.85;;;;;;;5.84;100.00;100333.75;5050624;28;20025;-65
2021/01/31 05:28:41;;;;;;;27.90;10.05;;;;;;;5.84;100.00;100352.72;5050342;28;20151;-65
2021/01/31 05:31:12;;;;;;;16.10;9.48;;;;;;;5.83;100.00;100353.78;5050603;28;20474;-64
2021/01/31 05:33:50;;;;;;;20.20;9.77;;;;;;;5.85;100.00;100345.44;5052388;28;20033;-65
2021/01/31 05:36:18;;;;;;;21.77;10.48;;;;;;;5.87;100.00;100343.31;5054640;28;20036;-65
2021/01/31 05:38:46;;;;;;;18.67;9.95;;;;;;;5.86;100.00;100347.09;5054569;28;20037;-64
2021/01/31 05:41:32;;;;;;;19.27;10.32;;;;;;;5.86;100.00;100352.50;5054479;28;20053;-65
2021/01/31 05:44:10;;;;;;;18.77;10.68;;;;;;;5.84;100.00;100343.78;5054652;28;20041;-65
2021/01/31 05:46:53;;;;;;;23.90;10.25;;;;;;;5.87;100.00;100332.47;5054403;28;20438;-63
2021/01/31 05:49:37;;;;;;;26.83;10.23;;;;;;;5.86;100.00;100326.22;5054556;28;20041;-64
2021/01/31 05:52:08;;;;;;;28.88;10.95;;;;;;;5.85;100.00;100324.56;5054239;28;20110;-63
2021/01/31 05:54:36;;;;;;;21.52;10.80;;;;;;;5.86;100.00;100330.81;5054290;28;20123;-64
2021/01/31 05:57:03;;;;;;;22.27;11.27;;;;;;;5.85;100.00;100329.16;5054537;28;20554;-66
2021/01/31 05:59:40;;;;;;;23.30;10.45;;;;;;;5.84;100.00;100343.78;5054525;28;20116;-63
2021/01/31 06:02:06;;;;;;;21.73;10.57;;;;;;;5.84;100.00;100335.66;5054194;28;20128;-64
2021/01/31 06:04:33;;;;;;;23.65;11.85;;;;;;;5.83;100.00;100336.69;5054261;28;20033;-63
2021/01/31 06:07:10;;;;;;;25.17;11.77;;;;;;;5.83;100.00;100323.16;5053983;28;20052;-66
2021/01/31 06:09:45;;;;;;;20.67;12.02;;;;;;;5.84;100.00;100313.97;5053974;28;20036;-65
2021/01/31 06:12:20;;;;;;;22.75;11.38;;;;;;;5.83;100.00;100305.00;5053960;28;20048;-64
2021/01/31 06:14:47;;;;;;;;;;;;;;;5.82;100.00;100306.06;5054393;28;20033;-64
2021/01/31 06:17:21;;;;;;;24.45;11.68;;;;;;;5.81;100.00;100301.69;5054202;28;20267;-64
2021/01/31 06:19:49;;;;;;;22.77;11.15;;;;;;;5.81;100.00;100298.97;5054077;28;20033;-65
2021/01/31 06:22:15;;;;;;;23.02;10.93;;;;;;;5.81;100.00;100298.16;5053812;28;20036;-67
2021/01/31 06:24:41;;;;;;;21.75;11.00;;;;;;;5.79;100.00;100292.13;5053718;28;20033;-66
2021/01/31 06:27:11;;;;;;;20.83;10.35;;;;;;;5.77;100.00;100289.66;5053560;28;20029;-65
2021/01/31 06:29:46;;;;;;;23.05;11.95;;;;;;;5.75;100.00;100295.31;5053546;28;20076;-66
2021/01/31 06:32:19;;;;;;;33.10;11.25;;;;;;;5.76;100.00;100293.41;5054058;28;20036;-65
2021/01/31 06:34:48;;;;;;;27.23;11.93;;;;;;;5.77;100.00;100284.22;5053599;28;20043;-66
2021/01/31 06:37:50;;;;;;;18.77;10.57;;;;;;;5.78;100.00;100275.06;5053684;28;20143;-64
2021/01/31 06:40:34;;;;;;;21.08;10.02;;;;;;;5.79;100.00;100281.31;5052608;28;20111;-65
2021/01/31 06:43:27;;;;;;;26.75;10.07;;;;;;;5.79;100.00;100302.97;5053418;28;20064;-65
2021/01/31 06:46:12;;;;;;;25.80;11.48;;;;;;;5.81;100.00;100296.28;5053143;28;20479;-66
2021/01/31 06:48:42;;;;;;;21.00;10.32;;;;;;;5.83;100.00;100287.91;5053405;28;20032;-66
2021/01/31 06:51:25;;;;;;;21.13;11.27;;;;;;;5.85;100.00;100280.38;5053239;28;20044;-65
2021/01/31 06:54:03;;;;;;;31.85;11.93;;;;;;;5.86;100.00;100260.38;5053305;28;20040;-65
2021/01/31 06:56:41;;;;;;;31.55;11.80;;;;;;;5.86;100.00;100238.69;5053177;28;20055;-65
2021/01/31 06:59:37;;;;;;;24.02;11.32;;;;;;;5.86;100.00;100239.50;5053135;28;20033;-65
2021/01/31 07:02:27;;;;;;;21.88;11.15;;;;;;;5.85;100.00;100242.44;5053006;28;20052;-65
2021/01/31 07:05:05;;;;;;;30.33;12.57;;;;;;;5.86;100.00;100233.25;5053152;28;20110;-65
2021/01/31 07:07:49;;;;;;;25.65;11.45;;;;;;;5.85;100.00;100235.16;5052847;28;20504;-65
2021/01/31 07:10:36;;;;;;;27.40;13.65;;;;;;;5.87;100.00;100226.78;5052904;28;20055;-66
2021/01/31 07:13:39;;;;;;;30.33;12.57;;;;;;;5.83;100.00;100225.59;5052868;28;20132;-66
2021/01/31 07:16:17;;;;;;;28.00;12.57;;;;;;;5.84;100.00;100229.97;5052744;28;20099;-66
2021/01/31 07:19:00;;;;;;;26.40;12.98;;;;;;;5.82;100.00;100229.34;5052766;28;20129;-65
2021/01/31 07:21:38;;;;;;;29.85;13.95;;;;;;;5.78;100.00;100225.44;5052749;28;20041;-65
2021/01/31 07:24:12;;;;;;;34.40;14.30;;;;;;;5.79;100.00;100224.41;5052658;28;20036;-65
2021/01/31 07:26:40;;;;;;;31.23;14.25;;;;;;;5.78;100.00;100220.03;5051406;28;20040;-65
2021/01/31 07:29:14;;;;;;;26.33;13.85;;;;;;;5.77;100.00;100223.81;5052451;28;20048;-67
2021/01/31 07:31:47;;;;;;;30.08;14.60;;;;;;;5.75;100.00;100211.31;5052474;28;20071;-66
2021/01/31 07:34:31;;;;;;;32.40;15.57;;;;;;;5.74;100.00;100215.06;5052410;28;20491;-66
2021/01/31 07:37:11;;;;;;;34.57;14.97;;;;;;;5.75;100.00;100216.72;5052543;28;20056;-64
2021/01/31 07:39:42;;;;;;;24.80;14.30;;;;;;;5.75;100.00;100205.88;5052389;28;20039;-65
2021/01/31 07:42:09;;;;;;;31.17;14.80;;;;;;;5.74;100.00;100193.41;5052316;28;20033;-66
2021/01/31 07:44:38;;;;;;;27.23;14.07;;;;;;;5.72;100.00;100195.47;5052361;28;20415;-65
2021/01/31 07:47:04;;;;;;;30.77;16.05;;;;;;;5.71;100.00;100193.81;5052137;28;20503;-66
2021/01/31 07:49:56;;;;;;;31.73;15.98;;;;;;;5.71;100.00;100204.66;5050856;28;20036;-64
2021/01/31 07:52:55;;;;;;;34.97;17.50;;;;;;;5.69;100.00;100201.34;5052004;28;20048;-64
2021/01/31 07:55:41;;;;;;;33.75;15.50;;;;;;;5.69;100.00;100208.66;5051317;28;20112;-65
2021/01/31 07:58:25;;;;;;;27.48;15.90;;;;;;;5.66;100.00;100207.22;5051987;28;20086;-65
2021/01/31 08:00:54;;;;;;;42.10;18.00;;;;;;;5.65;100.00;100205.56;5051997;28;20075;-65
2021/01/31 08:03:22;;;;;;;36.60;16.17;;;;;;;5.66;100.00;100218.06;5051740;28;20049;-65
2021/01/31 08:05:55;;;;;;;30.13;16.42;;;;;;;5.63;100.00;100217.69;5051731;28;20030;-64
2021/01/31 08:08:57;;;;;;;28.65;16.40;;;;;;;5.64;100.00;100216.63;5051869;28;20567;-66
2021/01/31 08:11:26;;;;;;;29.88;16.85;;;;;;;5.63;100.00;100218.53;5051734;28;20093;-64
2021/01/31 08:13:53;;;;;;;32.92;17.27;;;;;;;5.63;100.00;100223.09;5051664;28;20033;-66
2021/01/31 08:16:43;;;;;;;38.70;18.40;;;;;;;5.62;100.00;100225.00;5051697;28;20029;-67
2021/01/31 08:19:08;;;;;;;35.60;18.10;;;;;;;5.63;100.00;100228.53;5051610;28;20037;-66
2021/01/31 08:21:54;;;;;;;35.83;18.05;;;;;;;5.61;100.00;100215.22;5051492;28;20391;-65
2021/01/31 08:24:57;;;;;;;35.15;18.27;;;;;;;5.60;100.00;100200.00;5051684;28;20441;-64
2021/01/31 08:27:38;;;;;;;33.95;18.63;;;;;;;5.62;100.00;100197.91;5051456;28;20041;-64
2021/01/31 08:30:13;;;;;;;40.22;19.67;;;;;;;5.62;100.00;100197.91;5051163;28;20491;-64
2021/01/31 08:33:02;;;;;;;39.22;18.92;;;;;;;5.59;100.00;100194.81;5051460;28;20037;-65
2021/01/31 08:35:30;;;;;;;35.88;19.45;;;;;;;5.60;100.00;100188.34;5050798;28;20049;-65
2021/01/31 08:38:33;;;;;;;35.58;20.23;;;;;;;5.58;100.00;100183.16;5051234;28;20481;-66
2021/01/31 08:41:01;;;;;;;36.17;21.20;;;;;;;5.59;100.00;100163.16;5051247;28;20029;-65
2021/01/31 08:43:42;;;;;;;41.58;21.13;;;;;;;5.58;100.00;100147.94;5051216;28;20028;-65
2021/01/31 08:46:16;;;;;;;37.67;21.08;;;;;;;5.57;100.00;100131.94;5051050;28;20107;-65
2021/01/31 08:48:49;;;;;;;36.20;19.88;;;;;;;5.58;100.00;100128.16;5051233;28;20079;-65
2021/01/31 08:51:17;;;;;;;47.25;21.40;;;;;;;5.57;100.00;100112.97;5051070;28;20136;-65
2021/01/31 08:53:43;;;;;;;34.22;20.67;;;;;;;5.57;100.00;100121.91;5050954;28;20399;-65
2021/01/31 08:56:28;;;;;;;39.92;20.33;;;;;;;5.54;100.00;100105.28;5050914;28;20499;-65
2021/01/31 08:58:54;;;;;;;40.00;21.35;;;;;;;5.53;100.00;100088.19;5049812;28;20151;-66
2021/01/31 09:01:19;;;;;;;36.97;22.20;;;;;;;5.53;100.00;100065.69;5050835;28;20135;-64
2021/01/31 09:03:46;;;;;;;47.00;21.98;;;;;;;5.53;100.00;100044.84;5050770;28;20068;-63
2021/01/31 09:06:12;;;;;;;38.80;21.80;;;;;;;5.51;100.00;100028.00;5049765;28;20489;-65
2021/01/31 09:08:42;;;;;;;35.17;22.42;;;;;;;5.50;100.00;99996.56;5050625;28;20063;-65
2021/01/31 09:11:12;;;;;;;37.80;21.77;;;;;;;5.51;100.00;99981.97;5050701;28;20044;-66
2021/01/31 09:13:38;;;;;;;36.97;21.48;;;;;;;5.51;100.00;99971.13;5050741;28;20063;-65
2021/01/31 09:16:26;;;;;;;35.88;19.83;;;;;;;5.48;100.00;99963.47;5051221;28;20111;-65
2021/01/31 09:19:20;;;;;;;30.77;19.70;;;;;;;5.49;100.00;99977.84;5050896;28;20052;-64
2021/01/31 09:21:56;;;;;;;33.47;20.80;;;;;;;5.50;100.00;99974.91;5050640;28;20445;-66
2021/01/31 09:24:25;;;;;;;30.48;20.33;;;;;;;5.53;100.00;99952.78;5050747;28;20033;-65
2021/01/31 09:26:55;;;;;;;30.52;19.75;;;;;;;5.56;100.00;99946.91;5050666;28;20124;-64
2021/01/31 09:29:27;;;;;;;33.95;20.10;;;;;;;5.59;100.00;99945.63;5050472;28;20052;-65
2021/01/31 09:32:01;;;;;;;28.88;20.05;;;;;;;5.62;100.00;99940.56;5050607;28;20029;-64
2021/01/31 09:34:28;;;;;;;33.83;19.88;;;;;;;5.64;100.00;99943.88;5050586;28;20116;-65
2021/01/31 09:37:27;;;;;;;30.55;18.75;;;;;;;5.72;100.00;99962.47;5050442;28;20036;-66
2021/01/31 09:40:01;;;;;;;29.17;18.58;;;;;;;5.77;100.00;99950.16;5049203;28;20044;-65
2021/01/31 09:42:31;;;;;;;;;;;;;;;5.78;100.00;99946.38;5050994;28;20052;-66
2021/01/31 09:45:16;;;;;;;30.40;19.30;;;;;;;5.81;100.00;99933.19;5050399;28;19920;-66
2021/01/31 09:47:48;;;;;;;37.08;18.70;;;;;;;5.82;100.00;99924.00;5050541;28;20047;-64
2021/01/31 09:50:15;;;;;;;31.35;20.60;;;;;;;5.86;100.00;99921.63;5050415;28;20044;-65
2021/01/31 09:52:45;;;;;;;31.38;20.23;;;;;;;5.89;100.00;99913.03;5050426;28;20402;-64
2021/01/31 09:55:37;;;;;;;26.33;19.52;;;;;;;5.90;100.00;99922.84;5050402;28;20422;-63
2021/01/31 09:58:12;;;;;;;29.42;19.55;;;;;;;5.92;100.00;99912.63;5050405;28;20033;-64
2021/01/31 10:00:38;;;;;;;28.08;18.85;;;;;;;5.95;100.00;99917.56;5050261;28;20037;-65
2021/01/31 10:03:07;;;;;;;37.20;19.88;;;;;;;5.97;100.00;99910.84;5050349;28;20047;-65
2021/01/31 10:05:35;;;;;;;38.13;21.38;;;;;;;6.01;100.00;99911.19;5050491;28;20380;-65
2021/01/31 10:08:14;;;;;;;39.67;19.95;;;;;;;6.03;100.00;99904.47;5050187;28;20033;-65
2021/01/31 10:10:42;;;;;;;32.10;19.90;;;;;;;6.08;100.00;99906.50;5050657;28;20112;-63
2021/01/31 10:13:34;;;;;;;34.03;20.05;;;;;;;6.12;100.00;99899.53;5050325;28;20037;-64
2021/01/31 10:16:02;;;;;;;33.55;20.73;;;;;;;6.17;100.00;99885.28;5049979;28;20110;-65
2021/01/31 10:18:34;;;;;;;38.35;21.52;;;;;;;6.19;100.00;99881.25;5050178;28;20037;-64
2021/01/31 10:21:30;;;;;;;37.28;21.27;;;;;;;6.23;100.00;99877.00;5053853;28;20052;-65
2021/01/31 10:24:02;;;;;;;42.08;21.10;;;;;;;6.26;100.00;99860.28;5053739;28;20424;-64
2021/01/31 10:26:28;;;;;;;45.30;22.17;;;;;;;6.30;100.00;99861.44;5053678;28;20541;-65
2021/01/31 10:29:03;;;;;;;32.20;20.63;;;;;;;6.33;100.00;99860.97;5052151;28;20061;-65
2021/01/31 10:31:38;;;;;;;39.75;20.55;;;;;;;6.35;100.00;99858.84;5053692;28;20134;-64
2021/01/31 10:34:06;;;;;;;34.97;21.95;;;;;;;6.40;100.00;99851.88;5053618;28;20120;-64
2021/01/31 10:36:36;;;;;;;33.10;20.60;;;;;;;6.43;100.00;99844.09;5053712;28;20438;-66
2021/01/31 10:39:14;;;;;;;36.40;21.23;;;;;;;6.48;100.00;99840.66;5053633;28;20067;-65
2021/01/31 10:41:42;;;;;;;31.45;19.70;;;;;;;6.51;100.00;99835.56;5053337;28;20033;-66
2021/01/31 10:44:29;;;;;;;34.05;20.25;;;;;;;6.54;100.00;99823.41;5053383;28;20390;-66
2021/01/31 10:46:54;;;;;;;36.35;20.30;;;;;;;6.58;100.00;99813.72;5053498;28;20037;-65
2021/01/31 10:49:21;;;;;;;31.75;19.67;;;;;;;6.62;100.00;99823.06;5053330;28;20033;-65
2021/01/31 10:51:47;;;;;;;36.47;19.80;;;;;;;6.66;100.00;99816.06;5053346;28;20032;-64
2021/01/31 10:54:14;;;;;;;32.30;18.65;;;;;;;6.68;100.00;99813.94;5051891;28;20032;-65
2021/01/31 10:56:40;;;;;;;34.15;18.08;;;;;;;6.72;100.00;99811.56;5053145;28;20029;-64
2021/01/31 10:59:06;;;;;;;34.78;17.25;;;;;;;6.76;100.00;99813.53;5053141;28;20541;-66
2021/01/31 11:01:32;;;;;;;26.20;17.60;;;;;;;6.78;100.00;99805.19;5053028;28;20037;-65
2021/01/31 11:03:58;;;;;;;36.50;19.52;;;;;;;6.79;100.00;99810.34;5053156;28;20671;-65
2021/01/31 11:06:24;;;;;;;37.20;18.23;;;;;;;6.82;100.00;99788.16;5052945;28;20139;-66
2021/01/31 11:08:50;;;;;;;41.50;19.33;;;;;;;6.83;100.00;99789.81;5053065;28;20094;-64
2021/01/31 11:11:17;;;;;;;30.92;18.10;;;;;;;6.84;100.00;99787.91;5052860;28;20041;-65
2021/01/31 11:13:43;;;;;;;29.85;16.33;;;;;;;6.85;100.00;99784.94;5052777;28;20041;-65
2021/01/31 11:16:09;;;;;;;31.48;18.67;;;;;;;6.85;100.00;99776.81;5052879;28;20395;-65
2021/01/31 11:18:34;;;;;;;30.90;17.83;;;;;;;6.85;100.00;99765.97;5053015;28;20037;-65
2021/01/31 11:21:00;;;;;;;32.75;19.17;;;;;;;6.86;100.00;99756.75;5052786;28;20415;-63
2021/01/31 11:23:26;;;;;;;35.67;20.30;;;;;;;6.85;100.00;99738.00;5051187;28;20051;-66
2021/01/31 11:25:51;;;;;;;31.73;18.85;;;;;;;6.86;100.00;99724.19;5052660;28;20040;-64
2021/01/31 11:28:17;;;;;;;30.55;18.05;;;;;;;6.87;100.00;99723.09;5051283;28;20044;-66
2021/01/31 11:30:44;;;;;;;33.95;18.05;;;;;;;6.87;100.00;99712.25;5052266;28;20452;-65
2021/01/31 11:33:10;;;;;;;28.67;19.33;;;;;;;6.90;100.00;99716.34;5052688;28;20384;-65
2021/01/31 11:35:36;;;;;;;42.80;20.33;;;;;;;6.93;100.00;99719.41;5052556;28;20454;-65
2021/01/31 11:38:02;;;;;;;32.70;18.48;;;;;;;6.98;100.00;99712.44;5052531;28;20556;-64
2021/01/31 11:40:28;;;;;;;34.50;18.27;;;;;;;7.00;100.00;99715.72;5052470;28;20403;-66